Time;durP1;ratioP1;P1;durP2;ratioP2;P2;SDS_P1;SDS_P2;PMS_P1;PMS_P2;Temp;Humidity;BMP_temperature;BMP_pressure;BME280_temperature;BME280_humidity;BME280_pressure;Samples;Min_cycle;Max_cycle;Signal;HPM_P1;HPM_P2
2023/01/31 00:02:13;;;;;;;12.20;10.63;;;2.00;99.90;;;2.74;100.00;98757.63;5224656;28;20264;-77
2023/01/31 00:04:46;;;;;;;12.33;10.47;;;2.00;99.90;;;2.73;100.00;98765.97;5219682;28;20208;-81
2023/01/31 00:07:20;;;;;;;12.13;9.90;;;1.90;99.90;;;2.69;100.00;98765.66;5218660;28;20270;-80
2023/01/31 00:09:53;;;;;;;11.50;9.90;;;1.90;99.90;;;2.66;100.00;98767.88;5223704;28;20298;-83
2023/01/31 00:12:26;;;;;;;13.23;10.40;;;1.90;99.90;;;2.63;100.00;98759.97;5218108;28;20253;-81
2023/01/31 00:15:00;;;;;;;11.63;9.40;;;1.80;99.90;;;2.60;100.00;98763.78;5224270;28;22432;-81
2023/01/31 00:17:33;;;;;;;12.27;10.97;;;1.80;99.90;;;2.54;100.00;98764.06;5222189;28;20227;-81
2023/01/31 00:20:08;;;;;;;14.00;10.30;;;1.70;99.90;;;2.50;100.00;98763.63;5222580;28;20579;-80
2023/01/31 00:22:42;;;;;;;11.73;10.53;;;1.70;99.90;;;2.46;100.00;98760.78;5219095;28;20278;-81
2023/01/31 00:25:15;;;;;;;11.10;9.60;;;1.70;99.90;;;2.42;100.00;98757.78;5228380;28;20207;-81
2023/01/31 00:27:48;;;;;;;11.07;9.97;;;1.60;99.90;;;2.41;100.00;98763.56;5221071;28;20662;-81
2023/01/31 00:30:21;;;;;;;13.43;10.53;;;1.60;99.90;;;2.34;100.00;98766.19;5227231;28;20209;-81
2023/01/31 00:32:54;;;;;;;11.63;9.57;;;1.50;99.90;;;2.35;100.00;98765.47;5225906;28;20225;-80
2023/01/31 00:35:28;;;;;;;11.67;9.40;;;1.60;99.90;;;2.36;100.00;98767.25;5227375;28;20548;-80
2023/01/31 00:38:02;;;;;;;12.13;9.63;;;1.60;99.90;;;2.31;100.00;98769.28;5228640;28;20663;-80
2023/01/31 00:40:35;;;;;;;17.03;10.50;;;1.50;99.90;;;2.30;100.00;98759.94;5228395;28;20686;-83
2023/01/31 00:43:09;;;;;;;14.17;11.27;;;1.50;99.90;;;2.34;100.00;98768.69;5228724;28;20236;-81
2023/01/31 00:45:42;;;;;;;12.97;11.17;;;1.50;99.90;;;2.38;100.00;98768.28;5225369;28;20292;-80
2023/01/31 00:48:15;;;;;;;13.73;11.40;;;1.50;99.90;;;2.37;100.00;98769.00;5229222;28;20200;-80
2023/01/31 00:50:48;;;;;;;12.30;11.00;;;1.50;99.90;;;2.30;100.00;98761.56;5228617;28;20292;-81
2023/01/31 00:53:23;;;;;;;13.73;10.13;;;1.50;99.90;;;2.24;100.00;98760.19;5225579;28;20242;-80
2023/01/31 00:56:06;;;;;;;11.93;10.40;;;1.40;99.90;;;2.13;100.00;98758.19;5214686;28;20667;-80
2023/01/31 00:58:39;;;;;;;13.20;9.60;;;1.30;99.90;;;2.12;100.00;98766.50;5220056;28;20206;-81
2023/01/31 01:01:15;;;;;;;13.33;10.60;;;1.30;99.90;;;2.11;100.00;98768.84;5219506;28;20375;-80
2023/01/31 01:03:48;;;;;;;12.00;10.80;;;1.30;99.90;;;2.02;100.00;98764.63;5226199;28;20197;-81
2023/01/31 01:06:23;;;;;;;12.77;9.50;;;1.20;99.90;;;2.00;100.00;98771.16;5225844;28;20216;-80
2023/01/31 01:08:59;;;;;;;14.23;10.97;;;1.20;99.90;;;1.97;100.00;98759.84;5222057;28;20728;-80
2023/01/31 01:11:34;;;;;;;11.03;9.20;;;1.20;99.90;;;1.94;100.00;98749.44;5226095;28;20302;-81
2023/01/31 01:14:08;;;;;;;12.77;10.40;;;1.20;99.90;;;1.91;100.00;98759.19;5226843;28;20206;-82
2023/01/31 01:16:42;;;;;;;12.37;10.70;;;1.10;99.90;;;1.89;100.00;98758.13;5227036;28;20296;-80
2023/01/31 01:19:18;;;;;;;10.40;9.23;;;1.10;99.90;;;1.83;100.00;98762.53;5224308;28;20200;-80
2023/01/31 01:21:51;;;;;;;13.20;10.20;;;1.10;99.90;;;1.70;100.00;98761.25;5221803;28;20279;-80
2023/01/31 01:24:26;;;;;;;12.10;9.40;;;1.00;99.90;;;1.67;100.00;98762.56;5224102;28;20289;-81
2023/01/31 01:27:00;;;;;;;12.97;9.57;;;1.00;99.90;;;1.67;100.00;98757.53;5221159;28;20193;-81
2023/01/31 01:29:33;;;;;;;11.00;9.67;;;1.00;99.90;;;1.69;100.00;98762.00;5223667;28;20192;-80
2023/01/31 01:32:07;;;;;;;13.13;9.70;;;0.90;99.90;;;1.70;100.00;98767.94;5223021;28;20210;-81
2023/01/31 01:34:40;;;;;;;12.83;10.87;;;1.00;99.90;;;1.70;100.00;98768.81;5225319;28;20225;-81
2023/01/31 01:37:18;;;;;;;14.93;10.47;;;1.00;99.90;;;1.69;100.00;98771.16;5226733;28;20194;-81
2023/01/31 01:39:53;;;;;;;11.83;10.03;;;1.00;99.90;;;1.65;100.00;98774.97;5224969;28;20695;-81
2023/01/31 01:42:27;;;;;;;10.17;9.17;;;0.90;99.90;;;1.71;100.00;98778.16;5228645;28;20250;-81
2023/01/31 01:45:02;;;;;;;14.53;10.77;;;1.00;99.90;;;1.62;100.00;98769.63;5225519;28;20190;-80
2023/01/31 01:47:40;;;;;;;12.27;9.97;;;1.00;99.90;;;1.70;100.00;98770.44;5228618;28;20263;-84
2023/01/31 01:50:19;;;;;;;11.47;9.83;;;1.00;99.90;;;1.74;100.00;98773.44;5224650;28;20201;-81
2023/01/31 01:52:58;;;;;;;11.63;10.40;;;1.00;99.90;;;1.74;100.00;98775.06;5224137;28;20772;-81
2023/01/31 01:55:39;;;;;;;15.60;10.30;;;1.00;99.90;;;1.85;100.00;98771.16;5224599;28;20848;-80
2023/01/31 01:58:17;;;;;;;11.50;9.63;;;1.00;99.90;;;1.76;100.00;98769.44;5226246;28;20730;-80
2023/01/31 02:00:50;;;;;;;11.47;10.23;;;1.00;99.90;;;1.58;100.00;98782.63;5223179;28;20244;-80
2023/01/31 02:03:23;;;;;;;12.40;10.07;;;0.90;99.90;;;1.54;100.00;98783.03;5226661;28;20217;-82
2023/01/31 02:06:00;;;;;;;16.10;10.67;;;0.80;99.90;;;1.52;100.00;98799.63;5224302;28;20727;-80
2023/01/31 02:08:36;;;;;;;11.47;10.10;;;0.90;99.90;;;1.60;100.00;98797.91;5229062;28;20288;-80
2023/01/31 02:11:22;;;;;;;12.23;9.97;;;0.90;99.90;;;1.68;100.00;98803.03;5223838;28;20214;-80
2023/01/31 02:14:01;;;;;;;12.33;10.20;;;0.90;99.90;;;1.70;100.00;98800.69;5226559;28;20291;-82
2023/01/31 02:16:35;;;;;;;14.73;10.67;;;1.00;99.90;;;1.77;100.00;98790.50;5220024;28;20630;-81
2023/01/31 02:19:19;;;;;;;13.00;10.27;;;1.00;99.90;;;1.78;100.00;98795.72;5222079;28;20653;-81
2023/01/31 02:22:14;;;;;;;15.73;10.60;;;1.00;99.90;;;1.75;100.00;98795.41;5219960;28;20687;-80
2023/01/31 02:25:21;;;;;;;13.30;10.10;;;1.00;99.90;;;1.58;100.00;98797.75;5224963;28;20685;-82
2023/01/31 02:28:59;;;;;;;14.53;10.17;;;1.00;99.90;;;1.59;100.00;98794.50;5221641;28;20201;-82
2023/01/31 02:32:00;;;;;;;15.40;9.97;;;0.90;99.90;;;1.63;100.00;98796.63;5225060;28;20777;-80
2023/01/31 02:34:45;;;;;;;12.83;9.73;;;1.00;99.90;;;1.68;100.00;98789.53;5223249;28;20295;-80
2023/01/31 02:37:28;;;;;;;12.83;10.20;;;1.00;99.90;;;1.71;100.00;98794.91;5217655;28;20196;-81
2023/01/31 02:40:11;;;;;;;12.73;9.77;;;1.00;99.90;;;1.73;100.00;98790.94;5225236;28;20263;-80
2023/01/31 02:42:56;;;;;;;12.60;9.37;;;1.00;99.90;;;1.77;100.00;98795.53;5221887;28;20225;-81
2023/01/31 02:45:37;;;;;;;11.47;9.80;;;1.00;99.90;;;1.73;100.00;98799.38;5223473;28;20727;-80
2023/01/31 02:48:19;;;;;;;10.67;9.63;;;1.00;99.90;;;1.73;100.00;98799.38;5219436;28;20208;-82
2023/01/31 02:51:04;;;;;;;14.77;9.73;;;1.00;99.90;;;1.77;100.00;98801.50;5225756;28;20270;-81
2023/01/31 02:53:44;;;;;;;10.20;9.23;;;1.00;99.90;;;1.74;100.00;98801.16;5219438;28;20305;-81
2023/01/31 02:56:23;;;;;;;12.27;9.70;;;1.00;99.90;;;1.77;100.00;98804.03;5223821;28;20696;-81
2023/01/31 02:59:02;;;;;;;13.93;9.43;;;1.00;99.90;;;1.81;100.00;98802.72;5216587;28;20226;-83
2023/01/31 03:01:39;;;;;;;12.30;9.10;;;1.10;99.90;;;1.86;100.00;98815.78;5226190;28;20224;-78
2023/01/31 03:04:14;;;;;;;12.57;9.50;;;1.10;99.90;;;1.88;100.00;98816.84;5221899;28;20692;-80
2023/01/31 03:07:02;;;;;;;11.67;8.70;;;1.10;99.90;;;1.89;100.00;98813.59;5221405;28;20238;-81
2023/01/31 03:09:46;;;;;;;10.07;9.07;;;1.20;99.90;;;1.91;100.00;98824.72;5225724;28;20289;-80
2023/01/31 03:12:41;;;;;;;11.07;8.40;;;1.10;99.90;;;1.94;100.00;98820.00;5217492;28;20228;-80
2023/01/31 03:18:27;;;;;;;11.90;8.67;;;1.20;99.90;;;1.90;100.00;98820.44;5223659;28;20239;-81
2023/01/31 03:21:07;;;;;;;10.90;8.50;;;1.20;99.90;;;1.93;100.00;98810.66;5222792;28;22053;-80
2023/01/31 03:23:45;;;;;;;11.73;9.17;;;1.20;99.90;;;1.97;100.00;98810.25;5222844;28;20292;-81
2023/01/31 03:26:20;;;;;;;10.53;8.73;;;1.20;99.90;;;1.95;100.00;98816.78;5221612;28;20279;-81
2023/01/31 03:28:57;;;;;;;10.80;8.87;;;1.30;99.90;;;1.98;100.00;98822.16;5226052;28;20198;-80
2023/01/31 03:31:37;;;;;;;10.77;8.07;;;1.30;99.90;;;1.94;100.00;98818.38;5225540;28;20212;-82
2023/01/31 03:34:12;;;;;;;10.13;8.67;;;1.20;99.90;;;1.95;100.00;98832.78;5222351;28;20269;-80
2023/01/31 03:36:53;;;;;;;11.63;8.87;;;1.20;99.90;;;1.95;100.00;98831.91;5224470;28;20196;-80
2023/01/31 03:39:39;;;;;;;15.40;8.80;;;1.20;99.90;;;1.96;100.00;98838.72;5222943;28;20617;-81
2023/01/31 03:42:18;;;;;;;10.13;8.90;;;1.20;99.90;;;2.00;100.00;98840.81;5220652;28;20312;-80
2023/01/31 03:44:58;;;;;;;10.73;8.80;;;1.30;99.90;;;2.03;100.00;98843.66;5223919;28;20265;-81
2023/01/31 03:47:36;;;;;;;10.33;7.80;;;1.30;99.90;;;2.05;100.00;98843.84;5226247;28;20206;-79
2023/01/31 03:50:15;;;;;;;10.27;8.47;;;1.30;99.90;;;2.07;100.00;98838.22;5219693;28;20606;-81
2023/01/31 03:52:56;;;;;;;13.47;8.97;;;1.30;99.90;;;2.09;100.00;98831.72;5223541;28;20602;-81
2023/01/31 03:55:36;;;;;;;10.90;8.33;;;1.30;99.90;;;2.08;100.00;98834.97;5224745;28;20284;-81
2023/01/31 03:58:12;;;;;;;11.67;8.43;;;1.30;99.90;;;2.07;100.00;98830.66;5221242;28;20213;-81
2023/01/31 04:00:46;;;;;;;11.70;8.43;;;1.30;99.90;;;2.09;100.00;98835.84;5221102;28;20793;-79
2023/01/31 04:03:27;;;;;;;9.87;8.47;;;1.30;99.90;;;2.07;100.00;98833.19;5230163;28;20457;-81
2023/01/31 04:06:00;;;;;;;13.30;8.87;;;1.30;99.90;;;2.04;100.00;98837.91;5222228;28;20747;-82
2023/01/31 04:08:35;;;;;;;14.53;8.57;;;1.20;99.90;;;2.05;100.00;98839.69;5228741;28;20203;-81
2023/01/31 04:11:14;;;;;;;11.77;8.43;;;1.20;99.90;;;2.00;100.00;98840.81;5227973;28;20382;-82
2023/01/31 04:13:47;;;;;;;11.70;8.33;;;1.20;99.90;;;2.01;100.00;98852.72;5227324;28;20738;-81
2023/01/31 04:16:20;;;;;;;11.47;8.77;;;1.20;99.90;;;1.92;100.00;98852.63;5223781;28;20203;-81
2023/01/31 04:18:55;;;;;;;10.83;8.17;;;1.20;99.90;;;1.92;100.00;98849.22;5220774;28;20220;-81
2023/01/31 04:21:28;;;;;;;9.60;8.60;;;1.20;99.90;;;1.94;100.00;98853.66;5227667;28;20228;-80
2023/01/31 04:24:01;;;;;;;11.73;8.57;;;1.20;99.90;;;2.00;100.00;98851.81;5222554;28;20289;-80
2023/01/31 04:26:36;;;;;;;10.13;9.07;;;1.20;99.90;;;1.97;100.00;98845.53;5223551;28;22202;-81
2023/01/31 04:29:09;;;;;;;10.83;9.27;;;1.20;99.90;;;1.97;100.00;98841.38;5223920;28;20228;-81
2023/01/31 04:31:42;;;;;;;10.73;8.60;;;1.20;99.90;;;1.95;100.00;98845.41;5224664;28;20298;-81
2023/01/31 04:34:16;;;;;;;10.17;8.80;;;1.20;99.90;;;1.89;100.00;98844.75;5221611;28;20642;-81
2023/01/31 04:36:49;;;;;;;12.33;8.90;;;1.20;99.90;;;1.83;100.00;98848.22;5221638;28;20200;-81
2023/01/31 04:39:22;;;;;;;10.27;9.20;;;1.10;99.90;;;1.88;100.00;98849.63;5221795;28;20202;-81
2023/01/31 04:41:56;;;;;;;13.37;9.57;;;1.10;99.90;;;1.86;100.00;98851.06;5219042;28;20326;-82
2023/01/31 04:44:29;;;;;;;13.57;10.33;;;1.10;99.90;;;1.82;100.00;98838.88;5222767;28;20300;-81
2023/01/31 04:47:02;;;;;;;14.00;10.00;;;1.10;99.90;;;1.83;100.00;98851.63;5220904;28;20573;-79
2023/01/31 04:49:35;;;;;;;14.87;10.63;;;1.10;99.90;;;1.84;100.00;98857.59;5226492;28;20372;-81
2023/01/31 04:52:09;;;;;;;12.13;9.67;;;1.10;99.90;;;1.82;100.00;98861.56;5225710;28;20582;-81
2023/01/31 04:54:42;;;;;;;11.87;10.37;;;1.10;99.90;;;1.83;100.00;98870.91;5227283;28;20197;-81
2023/01/31 04:57:16;;;;;;;13.37;11.13;;;1.10;99.90;;;1.73;100.00;98862.38;5227489;28;20244;-82
2023/01/31 04:59:51;;;;;;;15.53;11.67;;;1.00;99.90;;;1.74;100.00;98866.66;5220966;28;20193;-81
2023/01/31 05:02:24;;;;;;;15.10;11.73;;;1.00;99.90;;;1.71;100.00;98861.31;5226873;28;20225;-80
2023/01/31 05:04:57;;;;;;;12.87;10.97;;;1.00;99.90;;;1.78;100.00;98861.25;5189006;28;1082866;-81
2023/01/31 05:07:30;;;;;;;13.90;10.77;;;1.00;99.90;;;1.84;100.00;98857.59;5227821;28;20219;-81
2023/01/31 05:10:04;;;;;;;14.27;11.40;;;1.10;99.90;;;1.75;100.00;98863.44;5228997;28;20208;-81
2023/01/31 05:12:38;;;;;;;17.07;10.80;;;1.00;99.90;;;1.64;100.00;98858.88;5219556;28;20221;-81
2023/01/31 05:15:11;;;;;;;13.77;11.10;;;0.90;99.90;;;1.66;100.00;98857.41;5228486;28;20211;-81
2023/01/31 05:17:46;;;;;;;11.43;10.17;;;0.90;99.90;;;1.79;100.00;98860.50;5221726;28;20609;-81
2023/01/31 05:20:19;;;;;;;15.43;10.13;;;1.00;99.90;;;2.04;100.00;98853.03;5221827;28;20234;-81
2023/01/31 05:22:52;;;;;;;12.07;9.83;;;1.20;99.90;;;1.90;100.00;98854.09;5227596;28;20685;-82
2023/01/31 05:25:26;;;;;;;12.33;9.57;;;1.10;99.90;;;1.75;100.00;98860.03;5225201;28;20294;-80
2023/01/31 05:28:01;;;;;;;11.67;9.87;;;1.00;99.90;;;1.62;100.00;98865.38;5223215;28;20198;-81
2023/01/31 05:30:34;;;;;;;13.00;8.93;;;1.00;99.90;;;1.68;100.00;98863.50;5223135;28;20200;-79
2023/01/31 05:33:08;;;;;;;12.73;9.17;;;0.90;99.90;;;1.67;100.00;98860.84;5227260;28;20648;-80
2023/01/31 05:35:41;;;;;;;10.87;9.53;;;0.90;99.90;;;1.67;100.00;98864.25;5227784;28;20199;-81
2023/01/31 05:38:14;;;;;;;11.77;8.90;;;0.90;99.90;;;1.73;100.00;98869.94;5227275;28;20578;-81
2023/01/31 05:40:49;;;;;;;12.00;8.73;;;0.90;99.90;;;1.77;100.00;98871.16;5222425;28;20563;-79
2023/01/31 05:43:23;;;;;;;15.03;9.07;;;1.00;99.90;;;1.76;100.00;98870.25;5224751;28;20304;-80
2023/01/31 05:45:56;;;;;;;11.47;9.13;;;1.00;99.90;;;1.80;100.00;98872.41;5224515;28;20209;-80
2023/01/31 05:48:30;;;;;;;13.10;9.23;;;1.00;99.90;;;1.84;100.00;98872.72;5227225;28;20276;-81
2023/01/31 05:51:03;;;;;;;9.53;8.43;;;1.00;99.90;;;1.82;100.00;98870.03;5222643;28;20671;-80
2023/01/31 05:53:36;;;;;;;12.63;9.00;;;1.00;99.90;;;1.76;100.00;98875.28;5227206;28;20242;-80
2023/01/31 05:56:09;;;;;;;10.87;8.17;;;1.00;99.90;;;1.71;100.00;98873.91;5224464;28;20295;-82
2023/01/31 05:58:47;;;;;;;13.70;9.20;;;0.90;99.90;;;1.73;100.00;98879.13;5220051;28;20197;-82
2023/01/31 06:01:22;;;;;;;10.60;9.03;;;1.00;99.90;;;1.69;100.00;98887.06;5222422;28;20197;-83
2023/01/31 06:03:55;;;;;;;15.07;9.50;;;1.00;99.90;;;1.68;100.00;98886.16;5225854;28;20228;-82
2023/01/31 06:06:28;;;;;;;13.50;8.67;;;1.00;99.90;;;1.68;100.00;98881.13;5228596;28;20203;-82
2023/01/31 06:09:01;;;;;;;9.87;8.40;;;0.90;99.90;;;1.66;100.00;98872.53;5228350;28;20201;-79
2023/01/31 06:11:34;;;;;;;14.50;8.93;;;0.90;99.90;;;1.64;100.00;98874.00;5216592;28;20236;-78
2023/01/31 06:14:12;;;;;;;11.97;9.57;;;0.90;99.90;;;1.62;100.00;98870.41;5227475;28;20193;-79
2023/01/31 06:16:45;;;;;;;10.23;9.13;;;0.90;99.90;;;1.55;100.00;98878.03;5228446;28;20292;-80
2023/01/31 06:19:20;;;;;;;10.53;8.47;;;0.80;99.90;;;1.56;100.00;98879.81;5227196;28;20197;-80
2023/01/31 06:21:53;;;;;;;12.00;8.13;;;0.80;99.90;;;1.56;100.00;98872.25;5223097;28;20310;-79
2023/01/31 06:24:26;;;;;;;9.67;8.23;;;0.80;99.90;;;1.45;100.00;98875.25;5226016;28;20308;-82
2023/01/31 06:26:59;;;;;;;9.83;7.83;;;0.70;99.90;;;1.46;100.00;98877.94;5219855;28;20298;-81
2023/01/31 06:29:34;;;;;;;10.00;8.77;;;0.60;99.90;;;1.40;100.00;98886.44;5221828;28;20207;-82
2023/01/31 06:32:07;;;;;;;11.13;8.70;;;0.60;99.90;;;1.34;100.00;98892.63;5224252;28;20312;-79
2023/01/31 06:34:40;;;;;;;13.33;9.17;;;0.60;99.90;;;1.31;100.00;98882.19;5217912;28;20202;-79
2023/01/31 06:37:13;;;;;;;11.13;8.70;;;0.50;99.90;;;1.22;100.00;98886.22;5224205;28;20201;-80
2023/01/31 06:39:46;;;;;;;10.40;9.07;;;0.50;99.90;;;1.22;100.00;98883.72;5228018;28;20276;-81
2023/01/31 06:42:19;;;;;;;12.57;9.70;;;0.50;99.90;;;1.21;100.00;98886.06;5223424;28;20272;-80
2023/01/31 06:44:54;;;;;;;14.00;9.83;;;0.40;99.90;;;1.21;100.00;98879.41;5221530;28;20209;-80
2023/01/31 06:47:27;;;;;;;12.80;9.20;;;0.40;99.90;;;1.17;100.00;98882.31;5218395;28;20208;-79
2023/01/31 06:50:00;;;;;;;12.20;10.07;;;0.40;99.90;;;1.20;100.00;98884.25;5217551;28;20212;-79
2023/01/31 06:52:33;;;;;;;16.17;9.97;;;0.40;99.90;;;1.13;100.00;98880.19;5221336;28;20249;-79
2023/01/31 06:55:07;;;;;;;12.40;10.37;;;0.40;99.90;;;1.05;100.00;98891.94;5215866;28;20716;-80
2023/01/31 06:57:47;;;;;;;16.13;11.27;;;0.30;99.90;;;0.99;100.00;98893.78;5220868;28;20654;-80
2023/01/31 07:00:23;;;;;;;15.13;11.47;;;0.30;99.90;;;0.96;100.00;98885.00;5221374;28;20254;-80
2023/01/31 07:02:56;;;;;;;15.63;11.73;;;0.20;99.90;;;0.95;100.00;98893.28;5219904;28;20315;-81
2023/01/31 07:05:29;;;;;;;15.67;10.77;;;0.10;99.90;;;0.88;100.00;98887.53;5219063;28;20237;-81
2023/01/31 07:08:02;;;;;;;21.83;14.97;;;0.10;99.90;;;0.85;100.00;98884.69;5223252;28;20205;-80
2023/01/31 07:10:36;;;;;;;19.53;14.17;;;0.10;99.90;;;0.86;100.00;98889.03;5219607;28;20277;-80
2023/01/31 07:13:09;;;;;;;16.27;12.77;;;0.10;99.90;;;0.70;100.00;98890.56;5225872;28;20811;-82
2023/01/31 07:15:43;;;;;;;25.93;18.20;;;0.00;99.90;;;0.76;100.00;98890.34;5230240;28;20200;-79
2023/01/31 07:18:16;;;;;;;22.50;16.17;;;0.00;99.90;;;0.85;100.00;98887.22;5216881;28;20204;-79
2023/01/31 07:20:50;;;;;;;19.23;15.57;;;0.10;99.90;;;0.86;100.00;98893.16;5224848;28;20193;-81
2023/01/31 07:23:23;;;;;;;19.70;13.10;;;0.10;99.90;;;0.89;100.00;98891.88;5222957;28;20324;-80
2023/01/31 07:25:56;;;;;;;19.33;13.03;;;0.20;99.90;;;0.89;100.00;98889.34;5220424;28;20865;-79
2023/01/31 07:28:29;;;;;;;21.27;15.23;;;0.20;99.90;;;0.89;100.00;98894.41;5225029;28;20283;-78
2023/01/31 07:31:10;;;;;;;16.00;12.43;;;0.20;99.90;;;0.92;100.00;98892.91;5220577;28;21038;-79
2023/01/31 07:33:43;;;;;;;13.97;11.03;;;0.20;99.90;;;0.85;100.00;98898.91;5223209;28;20669;-79
2023/01/31 07:36:21;;;;;;;15.60;11.37;;;0.10;99.90;;;0.88;100.00;98896.72;5224500;28;20616;-83
2023/01/31 07:38:56;;;;;;;14.67;9.73;;;0.10;99.90;;;0.87;100.00;98895.84;5227364;28;20209;-82
2023/01/31 07:41:29;;;;;;;11.20;9.77;;;0.10;99.90;;;0.92;100.00;98893.84;5233599;28;20299;-82
2023/01/31 07:44:02;;;;;;;11.10;9.87;;;0.10;99.90;;;0.90;100.00;98901.19;5226988;28;20217;-82
2023/01/31 07:46:36;;;;;;;15.43;10.20;;;0.20;99.90;;;0.92;100.00;98897.94;5230254;28;20330;-81
2023/01/31 07:49:10;;;;;;;12.50;10.07;;;0.20;99.90;;;0.88;100.00;98900.13;5226587;28;20726;-82
2023/01/31 07:51:43;;;;;;;12.03;9.77;;;0.10;99.90;;;0.92;100.00;98903.91;5224150;28;20303;-83
2023/01/31 07:54:17;;;;;;;21.67;12.40;;;0.20;99.90;;;1.10;100.00;98900.00;5221567;28;20201;-81
2023/01/31 07:56:50;;;;;;;20.23;12.57;;;0.30;99.90;;;1.13;100.00;98895.28;5225436;28;20201;-81
2023/01/31 07:59:23;;;;;;;18.57;12.80;;;0.40;99.90;;;1.44;100.00;98891.09;5226034;28;20315;-80
2023/01/31 08:04:48;;;;;;;20.50;13.47;;;0.90;99.90;;;1.97;100.00;98886.75;5220395;28;20304;-82
2023/01/31 08:07:21;;;;;;;18.97;11.73;;;1.20;99.90;;;2.35;100.00;98881.50;5219056;28;20687;-81
2023/01/31 08:09:54;;;;;;;17.23;13.07;;;1.50;99.90;;;2.76;100.00;98887.44;5222560;28;20202;-83
2023/01/31 08:12:27;;;;;;;13.03;9.80;;;1.80;99.90;;;2.97;100.00;98873.59;5223816;28;20786;-83
2023/01/31 08:15:01;;;;;;;12.33;8.40;;;2.00;99.90;;;3.16;100.00;98882.31;5225007;28;20213;-81
2023/01/31 08:17:35;;;;;;;10.07;8.20;;;2.30;99.90;;;3.37;100.00;98876.88;5224715;28;20213;-83
2023/01/31 08:20:10;;;;;;;17.17;10.67;;;2.50;99.90;;;3.53;100.00;98876.81;5227004;28;20205;-81
2023/01/31 08:22:43;;;;;;;13.27;8.20;;;2.70;99.90;;;3.74;100.00;98877.16;5223987;28;20262;-82
2023/01/31 08:25:16;;;;;;;10.23;7.07;;;2.90;99.90;;;3.76;100.00;98868.13;5221421;28;20247;-83
2023/01/31 08:27:52;;;;;;;12.90;8.70;;;3.00;99.90;;;3.82;100.00;98881.34;5223590;28;20203;-81
2023/01/31 08:30:25;;;;;;;9.13;7.67;;;3.10;99.90;;;3.80;100.00;98887.88;5223179;28;20661;-82
2023/01/31 08:33:00;;;;;;;10.60;7.70;;;3.10;99.90;;;3.81;100.00;98890.59;5220843;28;20271;-83
2023/01/31 08:35:33;;;;;;;13.17;8.47;;;3.10;99.90;;;3.83;100.00;98888.19;5220818;28;20207;-82
2023/01/31 08:38:06;;;;;;;11.00;7.10;;;3.10;99.90;;;3.97;100.00;98898.03;5219216;28;20201;-82
2023/01/31 08:40:49;;;;;;;10.93;7.17;;;3.20;99.90;;;3.98;100.00;98894.78;5219461;28;20197;-83
2023/01/31 08:43:22;;;;;;;11.73;7.70;;;3.30;99.90;;;4.11;100.00;98903.59;5217975;28;20230;-82
2023/01/31 08:45:55;;;;;;;9.60;7.07;;;3.40;99.90;;;4.21;100.00;98892.00;5225277;28;20205;-81
2023/01/31 08:48:32;;;;;;;10.70;6.93;;;3.40;99.90;;;4.18;97.75;98893.34;5219635;28;20232;-82
2023/01/31 08:51:08;;;;;;;11.03;8.27;;;3.50;99.90;;;4.20;99.15;98892.72;5222921;28;20205;-82
2023/01/31 08:53:43;;;;;;;11.57;7.57;;;3.40;99.90;;;4.20;98.46;98896.88;5221358;28;20204;-87
2023/01/31 08:56:17;;;;;;;13.23;7.33;;;3.40;99.90;;;4.16;98.98;98888.13;5227482;28;20844;-80
2023/01/31 08:58:50;;;;;;;10.17;7.37;;;3.40;99.90;;;4.24;100.00;98886.34;5223891;28;20198;-79
2023/01/31 09:01:23;;;;;;;11.73;7.60;;;3.50;99.90;;;4.31;99.16;98886.19;5224394;28;20608;-80
2023/01/31 09:03:58;;;;;;;11.13;7.67;;;3.50;99.90;;;4.45;98.31;98890.94;5220624;28;20727;-80
2023/01/31 09:06:31;;;;;;;11.70;7.83;;;3.60;99.90;;;4.50;97.02;98897.34;5224548;28;20208;-80
2023/01/31 09:09:04;;;;;;;12.40;7.50;;;3.70;99.90;;;4.39;97.37;98900.47;5225481;28;20189;-79
2023/01/31 09:11:38;;;;;;;11.73;7.37;;;3.70;99.90;;;4.44;96.63;98896.78;5222278;28;20603;-80
2023/01/31 09:14:11;;;;;;;9.47;6.87;;;3.60;99.90;;;4.48;97.18;98901.38;5221290;28;20263;-79
2023/01/31 09:16:45;;;;;;;11.40;7.23;;;3.60;99.90;;;4.51;96.98;98904.19;5220315;28;20243;-79
2023/01/31 09:19:21;;;;;;;10.00;6.93;;;3.60;99.90;;;4.66;95.31;98896.31;5219869;28;20197;-80
2023/01/31 09:21:54;;;;;;;11.43;6.50;;;3.70;99.90;;;4.69;94.13;98899.13;5222614;28;20313;-79
2023/01/31 09:24:27;;;;;;;12.17;6.10;;;3.80;99.90;;;4.77;92.94;98894.81;5218641;28;20221;-79
2023/01/31 09:27:00;;;;;;;11.27;7.00;;;3.90;99.90;;;4.79;92.16;98893.31;5222579;28;20284;-79
2023/01/31 09:29:33;;;;;;;13.33;7.30;;;3.80;99.90;;;4.87;92.77;98893.31;5219701;28;20203;-78
2023/01/31 09:32:07;;;;;;;11.53;6.63;;;3.90;99.90;;;4.92;91.43;98894.66;5223830;28;20214;-79
2023/01/31 09:34:41;;;;;;;14.00;6.90;;;3.90;99.90;;;4.74;92.57;98897.94;5218791;28;20283;-79
2023/01/31 09:37:15;;;;;;;9.23;7.00;;;3.90;99.90;;;4.85;92.02;98888.84;5223160;28;20211;-79
2023/01/31 09:39:48;;;;;;;10.87;6.67;;;4.00;99.90;;;4.85;92.12;98887.19;5218099;28;20198;-79
2023/01/31 09:42:26;;;;;;;11.63;5.97;;;4.10;99.90;;;4.95;91.71;98883.88;5219282;28;20597;-81
2023/01/31 09:45:04;;;;;;;12.03;6.97;;;4.10;99.90;;;5.13;91.35;98882.22;5220763;28;20235;-79
2023/01/31 09:47:42;;;;;;;12.67;7.20;;;4.10;99.90;;;5.14;90.86;98889.06;5220814;28;20695;-79
2023/01/31 09:50:22;;;;;;;9.33;6.60;;;4.20;99.90;;;5.25;90.56;98880.84;5218589;28;20955;-79
2023/01/31 09:52:55;;;;;;;10.33;6.90;;;4.40;99.90;;;5.52;90.85;98885.09;5219035;28;20326;-78
2023/01/31 09:55:38;;;;;;;10.40;6.93;;;4.70;99.90;;;5.65;87.29;98890.50;5221998;28;20284;-80
2023/01/31 09:58:22;;;;;;;13.33;6.43;;;4.80;99.90;;;5.67;85.73;98880.53;5220089;28;20736;-79
2023/01/31 10:01:03;;;;;;;13.03;6.70;;;4.80;99.90;;;5.59;85.82;98874.75;5223265;28;20219;-79
2023/01/31 10:04:01;;;;;;;8.60;6.17;;;4.80;99.90;;;5.60;85.51;98883.22;5219024;28;20253;-80
2023/01/31 10:06:43;;;;;;;9.80;5.73;;;4.70;99.90;;;5.57;84.55;98882.94;5223791;28;20288;-81
2023/01/31 10:09:26;;;;;;;10.70;5.97;;;4.80;99.90;;;5.47;84.60;98881.22;5221095;28;20296;-79
2023/01/31 10:12:05;;;;;;;9.97;5.90;;;4.50;99.90;;;5.36;85.07;98881.84;5222420;28;20606;-80
2023/01/31 10:14:46;;;;;;;9.87;5.43;;;4.40;99.90;;;5.29;85.79;98885.44;5225157;28;20666;-81
2023/01/31 10:17:26;;;;;;;13.63;6.20;;;4.40;99.90;;;5.38;84.52;98891.41;5226846;28;20248;-81
2023/01/31 10:20:05;;;;;;;7.97;6.03;;;4.50;99.90;;;5.27;85.33;98893.66;5224346;28;20220;-80
2023/01/31 10:22:46;;;;;;;10.70;6.63;;;4.40;99.90;;;5.24;86.76;98878.19;5226440;28;20225;-81
2023/01/31 10:25:26;;;;;;;10.80;6.30;;;4.30;99.90;;;5.29;86.79;98879.47;5221696;28;20275;-80
2023/01/31 10:28:05;;;;;;;10.20;6.27;;;4.40;99.90;;;5.31;85.04;98878.00;5222204;28;20254;-81
2023/01/31 10:30:45;;;;;;;8.93;6.30;;;4.50;99.90;;;5.33;86.33;98873.97;5222993;28;20294;-79
2023/01/31 10:33:28;;;;;;;9.03;6.13;;;4.60;99.90;;;5.41;85.54;98876.47;5220782;28;20228;-80
2023/01/31 10:36:05;;;;;;;11.90;6.33;;;4.60;99.90;;;5.62;81.97;98864.00;5221877;28;20229;-81
2023/01/31 10:38:55;;;;;;;9.87;6.10;;;4.80;99.90;;;5.53;82.51;98865.69;5229068;28;20205;-80
2023/01/31 10:41:39;;;;;;;8.47;6.07;;;4.70;99.90;;;5.63;81.69;98853.97;5221642;28;20221;-80
2023/01/31 10:44:24;;;;;;;11.03;5.80;;;5.00;99.90;;;5.61;82.47;98850.41;5225230;28;20221;-81
2023/01/31 10:46:59;;;;;;;10.83;6.00;;;4.90;99.90;;;5.59;82.21;98841.78;5219257;28;20202;-80
2023/01/31 10:49:32;;;;;;;8.87;5.53;;;5.00;99.90;;;5.55;82.56;98848.94;5223272;28;20665;-80
2023/01/31 10:52:18;;;;;;;11.53;5.87;;;5.00;99.90;;;5.56;81.92;98846.56;5224074;28;20224;-82
2023/01/31 10:55:06;;;;;;;9.20;5.47;;;4.90;99.90;;;5.43;83.00;98851.25;5224689;28;20213;-81
2023/01/31 10:57:39;;;;;;;8.27;6.10;;;4.70;99.90;;;5.56;81.78;98851.63;5220003;28;20585;-81
2023/01/31 11:00:30;;;;;;;11.27;5.70;;;4.90;99.90;;;5.56;81.70;98851.63;5223998;28;20212;-82
2023/01/31 11:03:03;;;;;;;9.13;6.10;;;4.90;99.90;;;5.64;82.40;98837.13;5226309;28;20221;-81
2023/01/31 11:05:43;;;;;;;11.50;6.30;;;4.90;99.90;;;5.65;82.28;98837.25;5224391;28;20512;-81